Time;durP1;ratioP1;P1;durP2;ratioP2;P2;SDS_P1;SDS_P2;PMS_P1;PMS_P2;Temp;Humidity;BMP_temperature;BMP_pressure;BME280_temperature;BME280_humidity;BME280_pressure;Samples;Min_cycle;Max_cycle;Signal;HPM_P1;HPM_P2
2023/12/03 00:02:35;;;;;;;17.08;3.30;;;;;;;19.49;100.00;101314.03;10575730;27;20572;-75
2023/12/03 00:08:00;;;;;;;20.75;4.05;;;;;;;19.43;100.00;101321.22;10581137;27;20039;-75
2023/12/03 00:13:22;;;;;;;17.95;3.90;;;;;;;19.39;100.00;101344.50;10566818;27;20040;-75
2023/12/03 00:18:44;;;;;;;16.20;3.97;;;;;;;19.40;100.00;101323.94;10565866;27;20063;-74
2023/12/03 00:24:08;;;;;;;29.02;4.57;;;;;;;19.45;100.00;101319.41;10574094;27;20051;-75
2023/12/03 00:29:31;;;;;;;35.80;4.43;;;;;;;19.36;100.00;101331.13;10593126;27;20439;-75
2023/12/03 00:34:53;;;;;;;17.30;2.72;;;;;;;19.37;100.00;101326.66;10578494;27;20568;-76
2023/12/03 00:40:17;;;;;;;20.00;3.60;;;;;;;19.30;100.00;101301.72;10586396;27;20051;-75
2023/12/03 00:45:39;;;;;;;18.15;3.25;;;;;;;19.26;100.00;101307.16;10588670;27;20497;-75
2023/12/03 00:51:02;;;;;;;21.38;3.75;;;;;;;19.30;100.00;101308.88;10577004;27;20096;-75
2023/12/03 00:56:26;;;;;;;16.98;3.60;;;;;;;19.43;100.00;101291.75;10583636;27;20035;-75
2023/12/03 01:01:48;;;;;;;21.70;3.85;;;;;;;19.43;100.00;101294.44;10597430;27;20043;-75
2023/12/03 01:07:10;;;;;;;28.55;4.72;;;;;;;19.39;100.00;101276.66;10590909;27;20135;-74
2023/12/03 01:12:34;;;;;;;23.75;3.53;;;;;;;19.30;100.00;101295.50;10576703;27;20668;-74
2023/12/03 01:17:57;;;;;;;17.33;3.75;;;;;;;19.32;100.00;101302.63;10572266;27;20133;-75
2023/12/03 01:23:19;;;;;;;24.80;3.47;;;;;;;19.45;100.00;101298.00;10562178;27;20075;-74
2023/12/03 01:28:43;;;;;;;24.50;5.20;;;;;;;19.44;100.00;101285.50;10560171;27;20079;-75
2023/12/03 01:34:06;;;;;;;22.40;3.83;;;;;;;19.49;100.00;101291.75;10550739;27;20128;-75
2023/12/03 01:39:28;;;;;;;24.35;3.10;;;;;;;19.59;100.00;101288.03;10571436;27;20054;-75
2023/12/03 01:44:52;;;;;;;24.02;3.97;;;;;;;19.57;100.00;101280.91;10538892;27;20058;-76
2023/12/03 01:50:16;;;;;;;18.10;3.92;;;;;;;19.66;100.00;101262.94;10570862;27;20051;-75
2023/12/03 01:55:39;;;;;;;21.15;4.03;;;;;;;19.68;100.00;101247.75;10578939;27;20127;-76
2023/12/03 02:01:03;;;;;;;22.52;3.95;;;;;;;19.63;100.00;101259.41;10574525;27;20512;-75
2023/12/03 02:06:25;;;;;;;15.95;3.50;;;;;;;19.70;100.00;101270.00;10572549;27;20071;-75
2023/12/03 02:11:48;;;;;;;19.40;4.47;;;;;;;19.67;100.00;101275.44;10565361;27;20394;-75
2023/12/03 02:17:12;;;;;;;15.10;3.22;;;;;;;19.67;100.00;101267.41;10579890;27;20071;-75
2023/12/03 02:22:39;;;;;;;28.50;3.20;;;;;;;19.78;100.00;101275.28;10568122;27;20095;-73
2023/12/03 02:28:01;;;;;;;18.47;3.93;;;;;;;19.71;100.00;101282.50;10590288;27;20055;-72
2023/12/03 02:33:24;;;;;;;21.27;4.28;;;;;;;19.68;100.00;101266.50;10596906;27;20035;-72
2023/12/03 02:38:48;;;;;;;28.73;5.72;;;;;;;19.66;100.00;101279.00;10565690;27;20142;-72
2023/12/03 02:44:10;;;;;;;27.55;3.72;;;;;;;19.60;100.00;101272.84;10580191;27;20083;-72
2023/12/03 02:49:33;;;;;;;22.33;4.68;;;;;;;19.52;100.00;101269.38;10578232;28;20058;-73
2023/12/03 02:54:57;;;;;;;20.73;3.30;;;;;;;19.50;100.00;101253.31;10544776;28;20695;-73
2023/12/03 03:00:20;;;;;;;24.45;4.70;;;;;;;19.42;100.00;101256.09;10591628;28;20564;-73
2023/12/03 03:05:42;;;;;;;18.63;3.40;;;;;;;19.44;100.00;101258.72;10573646;28;20070;-73
2023/12/03 03:11:09;;;;;;;17.00;3.15;;;;;;;19.44;100.00;101248.91;10568420;28;20128;-72
2023/12/03 03:16:32;;;;;;;20.17;3.40;;;;;;;19.37;100.00;101257.91;10586945;28;20043;-72
2023/12/03 03:21:54;;;;;;;15.98;3.63;;;;;;;19.31;100.00;101257.09;10549227;28;20047;-72
2023/12/03 03:27:18;;;;;;;27.38;4.20;;;;;;;19.34;100.00;101262.44;10576678;28;20051;-73
2023/12/03 03:32:41;;;;;;;23.40;4.68;;;;;;;19.30;100.00;101255.34;10604589;27;20625;-75
2023/12/03 03:38:03;;;;;;;13.63;3.00;;;;;;;19.36;100.00;101266.84;10579667;27;20075;-75
2023/12/03 03:43:27;;;;;;;24.63;3.47;;;;;;;19.36;100.00;101269.53;10566337;27;20544;-75
2023/12/03 03:48:50;;;;;;;16.65;3.22;;;;;;;19.43;100.00;101271.22;10536163;28;20094;-75
2023/12/03 03:54:12;;;;;;;20.58;3.65;;;;;;;19.33;100.00;101279.41;10522623;28;20052;-75
2023/12/03 03:59:36;;;;;;;14.30;2.83;;;;;;;19.45;100.00;101271.22;10536981;28;20059;-75
2023/12/03 04:04:59;;;;;;;17.30;3.47;;;;;;;19.50;100.00;101280.09;10521514;28;20097;-75
2023/12/03 04:10:22;;;;;;;11.40;3.20;;;;;;;19.54;100.00;101294.38;10535392;28;20539;-75
2023/12/03 04:15:46;;;;;;;18.33;3.30;;;;;;;19.49;100.00;101289.06;10535849;28;20063;-75
2023/12/03 04:21:15;;;;;;;17.77;3.20;;;;;;;19.40;100.00;101308.78;10527889;28;20039;-75
2023/12/03 04:26:37;;;;;;;20.38;3.10;;;;;;;19.41;100.00;101307.00;10523383;28;20044;-75
2023/12/03 04:32:01;;;;;;;15.45;3.30;;;;;;;19.40;100.00;101287.34;10535819;28;20048;-75
2023/12/03 04:37:23;;;;;;;21.45;4.32;;;;;;;19.47;100.00;101298.91;10521274;28;20410;-75
2023/12/03 04:42:46;;;;;;;23.20;4.57;;;;;;;19.47;100.00;101294.44;10534413;28;20055;-75
2023/12/03 04:48:10;;;;;;;12.63;2.72;;;;;;;19.47;100.00;101294.44;10541675;28;20079;-75
2023/12/03 04:53:32;;;;;;;24.13;3.25;;;;;;;19.46;100.00;101295.34;10536366;28;20079;-75
2023/12/03 04:58:55;;;;;;;18.55;4.05;;;;;;;19.45;100.00;101296.22;10568505;28;20046;-75
2023/12/03 05:04:19;;;;;;;13.75;3.53;;;;;;;19.55;100.00;101317.56;10554879;28;20156;-75
2023/12/03 05:09:41;;;;;;;21.13;2.95;;;;;;;19.72;100.00;101294.13;10553904;28;20047;-75
2023/12/03 05:15:04;;;;;;;10.50;3.05;;;;;;;19.75;100.00;101305.69;10543121;28;20452;-75
2023/12/03 05:20:28;;;;;;;21.98;3.95;;;;;;;19.89;100.00;101303.69;10550370;28;20112;-75
2023/12/03 05:25:50;;;;;;;19.00;4.18;;;;;;;19.88;100.00;101303.72;10542832;28;20429;-75
2023/12/03 05:31:13;;;;;;;16.92;3.22;;;;;;;19.98;100.00;101315.19;10526897;28;20420;-75
2023/12/03 05:36:37;;;;;;;19.80;3.67;;;;;;;19.97;100.00;101316.97;10557787;28;20681;-75
2023/12/03 05:41:59;;;;;;;16.38;3.22;;;;;;;20.08;100.00;101320.41;10573853;28;20362;-75
2023/12/03 05:47:21;;;;;;;23.13;3.13;;;;;;;20.14;100.00;101324.81;10576588;27;20304;-75
2023/12/03 05:52:46;;;;;;;23.35;3.78;;;;;;;20.33;100.00;101318.28;10566116;27;20480;-76
2023/12/03 05:58:08;;;;;;;18.48;3.33;;;;;;;20.43;100.00;101332.41;10588552;27;20560;-75
2023/12/03 06:03:30;;;;;;;13.07;2.58;;;;;;;20.50;100.00;101344.81;10570443;27;20574;-76
2023/12/03 06:08:56;;;;;;;15.50;3.10;;;;;;;21.09;100.00;101327.69;10584459;27;20042;-76
2023/12/03 06:14:19;;;;;;;13.02;3.03;;;;;;;20.89;100.00;101337.91;10558285;27;20729;-73
2023/12/03 06:19:41;;;;;;;12.65;3.58;;;;;;;21.03;100.00;101350.19;10568927;27;20493;-72
2023/12/03 06:25:08;;;;;;;16.70;3.50;;;;;;;21.01;100.00;101348.41;10561408;27;20103;-72
2023/12/03 06:30:30;;;;;;;12.55;2.75;;;;;;;21.52;100.00;101334.97;10560111;27;20849;-73
2023/12/03 06:35:55;;;;;;;13.07;3.33;;;;;;;21.50;100.00;101352.91;10570298;27;20128;-73
2023/12/03 06:41:19;;;;;;;18.05;4.00;;;;;;;21.51;100.00;101378.88;10569085;27;20044;-72
2023/12/03 06:46:41;;;;;;;20.48;3.50;;;;;;;22.69;100.00;101356.56;10560112;27;20047;-72
2023/12/03 06:52:04;;;;;;;11.75;2.47;;;;;;;23.28;95.91;101369.38;10601305;27;20051;-72
2023/12/03 06:57:28;;;;;;;12.27;2.55;;;;;;;22.92;98.45;101389.19;10578635;28;20071;-73
2023/12/03 07:02:51;;;;;;;15.95;3.47;;;;;;;22.11;100.00;101383.03;10581846;28;20051;-73
2023/12/03 07:08:13;;;;;;;13.63;3.42;;;;;;;22.11;100.00;101377.66;10608365;27;20075;-74
2023/12/03 07:13:37;;;;;;;11.82;2.85;;;;;;;22.42;100.00;101372.44;10609596;27;20609;-73
2023/12/03 07:18:59;;;;;;;17.13;3.28;;;;;;;23.45;96.06;101371.59;10587921;27;20108;-74
2023/12/03 07:24:22;;;;;;;25.25;3.83;;;;;;;22.86;99.70;101381.28;10552518;28;20054;-74
2023/12/03 07:29:46;;;;;;;15.50;3.17;;;;;;;22.41;100.00;101384.13;10580260;27;20044;-73
2023/12/03 07:35:09;;;;;;;20.92;4.63;;;;;;;22.57;100.00;101374.78;10580586;27;20039;-74
2023/12/03 07:40:31;;;;;;;17.50;3.80;;;;;;;23.00;100.00;101381.81;10564924;27;20062;-74
2023/12/03 07:45:55;;;;;;;13.27;3.67;;;;;;;23.03;100.00;101388.03;10590544;27;20055;-74
2023/12/03 07:51:17;;;;;;;12.43;3.40;;;;;;;24.16;91.57;101380.31;10583527;27;20043;-74
2023/12/03 07:56:41;;;;;;;17.92;4.10;;;;;;;24.06;90.81;101396.84;10607766;27;20127;-74
2023/12/03 08:02:06;;;;;;;15.38;4.18;;;;;;;25.35;75.11;101382.72;10592218;27;20051;-73
2023/12/03 08:07:28;;;;;;;11.88;2.78;;;;;;;25.32;74.37;101372.03;10607554;27;20377;-73
2023/12/03 08:12:50;;;;;;;12.98;2.92;;;;;;;25.72;71.27;101384.16;10606299;27;20066;-74
2023/12/03 08:18:14;;;;;;;21.55;4.00;;;;;;;25.25;72.79;101384.00;10606135;27;20047;-74
2023/12/03 08:23:37;;;;;;;18.75;3.20;;;;;;;25.55;71.45;101381.13;10606319;27;20103;-74
2023/12/03 08:28:59;;;;;;;15.63;3.45;;;;;;;26.06;65.67;101371.06;10606858;27;20115;-74
2023/12/03 08:34:23;;;;;;;12.38;3.22;;;;;;;26.86;59.85;101377.78;10606328;27;20100;-74
2023/12/03 08:39:46;;;;;;;12.02;3.20;;;;;;;25.96;64.51;101353.44;10605981;27;20054;-73
2023/12/03 08:45:08;;;;;;;9.52;2.45;;;;;;;26.29;64.11;101355.81;10566080;28;20047;-74
2023/12/03 08:50:32;;;;;;;12.10;2.53;;;;;;;26.31;59.16;101345.81;10580124;27;20047;-74
2023/12/03 08:55:58;;;;;;;15.35;2.70;;;;;;;24.76;73.60;101351.44;10591463;27;20051;-74
2023/12/03 09:01:21;;;;;;;16.55;3.40;;;;;;;24.96;77.24;101347.16;10591716;27;20092;-74
2023/12/03 09:06:46;;;;;;;16.52;3.63;;;;;;;25.09;74.65;101363.84;10590196;27;20054;-73
2023/12/03 09:12:08;;;;;;;11.93;2.70;;;;;;;25.74;71.89;101356.06;10604181;27;20119;-74
2023/12/03 09:17:32;;;;;;;18.85;3.28;;;;;;;25.49;71.11;101362.41;10586937;27;20519;-73
2023/12/03 09:22:55;;;;;;;17.23;3.63;;;;;;;24.99;74.19;101344.38;10548244;28;20067;-74
2023/12/03 09:28:18;;;;;;;10.57;2.53;;;;;;;24.85;76.49;101337.63;10572030;27;20463;-74
2023/12/03 09:33:40;;;;;;;15.30;3.03;;;;;;;24.87;76.59;101339.38;10604318;27;20088;-74
2023/12/03 09:39:05;;;;;;;17.50;3.58;;;;;;;24.76;77.06;101313.63;10573279;27;20138;-73
2023/12/03 09:44:34;;;;;;;13.15;2.55;;;;;;;24.83;77.08;101320.59;10546720;28;20047;-73
2023/12/03 09:49:56;;;;;;;12.07;2.78;;;;;;;25.10;76.12;101314.25;10576468;27;20063;-73
2023/12/03 09:55:21;;;;;;;19.27;3.80;;;;;;;25.93;70.13;101318.38;10546778;28;20131;-74
2023/12/03 10:00:43;;;;;;;19.98;3.95;;;;;;;25.28;71.51;101307.28;10588145;27;20047;-74
2023/12/03 10:06:06;;;;;;;21.67;3.08;;;;;;;24.51;79.17;101294.69;10601019;27;20082;-74
2023/12/03 10:11:37;;;;;;;15.55;3.75;;;;;;;24.49;77.88;101299.22;10602445;27;20487;-73
2023/12/03 10:16:59;;;;;;;18.15;3.10;;;;;;;24.25;82.31;101305.44;10552491;28;20047;-75
2023/12/03 10:22:31;;;;;;;8.63;2.30;;;;;;;24.33;83.32;101292.59;10545679;28;20489;-74
2023/12/03 10:27:56;;;;;;;18.10;2.97;;;;;;;23.87;88.00;101282.34;10563568;28;20083;-74
2023/12/03 10:33:19;;;;;;;14.77;3.35;;;;;;;23.66;88.65;101289.28;10561254;28;20075;-74
2023/12/03 10:38:42;;;;;;;17.80;3.58;;;;;;;23.88;90.48;101278.72;10601297;27;20047;-73
2023/12/03 10:44:06;;;;;;;14.82;3.72;;;;;;;23.98;89.33;101267.59;10577943;27;20043;-74
2023/12/03 10:49:32;;;;;;;16.48;3.33;;;;;;;24.76;82.48;101276.69;10561924;27;20113;-75
2023/12/03 10:54:54;;;;;;;10.85;3.13;;;;;;;25.30;75.42;101254.06;10570586;28;20043;-74
2023/12/03 11:00:21;;;;;;;22.17;3.65;;;;;;;25.78;70.58;101232.41;10569479;28;20504;-73
2023/12/03 11:05:52;;;;;;;17.65;2.90;;;;;;;25.61;68.49;101240.28;10600376;28;20051;-74
2023/12/03 11:11:15;;;;;;;12.57;3.38;;;;;;;24.81;79.99;101242.28;10600288;28;20400;-73
2023/12/03 11:16:50;;;;;;;9.30;2.42;;;;;;;24.57;82.74;101251.28;10584276;28;20055;-74
2023/12/03 11:22:29;;;;;;;10.60;1.80;;;;;;;24.15;85.99;101240.97;10558671;28;20075;-73
2023/12/03 11:27:53;;;;;;;14.57;2.90;;;;;;;23.97;89.63;101240.66;10570259;28;20046;-74
2023/12/03 11:33:21;;;;;;;21.00;3.70;;;;;;;23.99;90.59;101217.22;10600639;28;20091;-73
2023/12/03 11:38:44;;;;;;;15.05;2.72;;;;;;;23.67;95.40;101237.13;10581676;28;20075;-73
2023/12/03 11:44:19;;;;;;;15.48;2.90;;;;;;;23.52;100.00;101230.38;10557672;28;20054;-74
2023/12/03 11:49:43;;;;;;;12.77;3.30;;;;;;;23.31;100.00;101225.59;10584495;27;20089;-74
2023/12/03 11:55:07;;;;;;;20.88;3.88;;;;;;;23.31;100.00;101207.59;10591813;27;20434;-74
2023/12/03 12:00:30;;;;;;;16.88;3.05;;;;;;;23.33;100.00;101203.06;10569219;27;20053;-74
2023/12/03 12:05:54;;;;;;;15.80;3.17;;;;;;;23.27;100.00;101197.84;10606690;27;20111;-74
2023/12/03 12:11:16;;;;;;;9.25;2.45;;;;;;;23.30;99.43;101207.69;10592923;27;20042;-73
2023/12/03 12:16:39;;;;;;;16.60;3.50;;;;;;;23.32;100.00;101198.59;10579088;27;20056;-74
2023/12/03 12:22:03;;;;;;;16.08;3.03;;;;;;;23.20;100.00;101198.97;10588594;27;20103;-74
2023/12/03 12:27:26;;;;;;;18.08;3.45;;;;;;;23.17;100.00;101201.72;10568675;27;20167;-74
2023/12/03 12:32:51;;;;;;;18.10;2.58;;;;;;;23.14;100.00;101198.25;10606190;27;20500;-73
2023/12/03 12:38:15;;;;;;;14.18;3.05;;;;;;;23.12;100.00;101190.22;10581375;27;20052;-74
2023/12/03 12:43:54;;;;;;;23.98;4.50;;;;;;;23.07;100.00;101191.28;10563069;28;20142;-74
2023/12/03 12:49:17;;;;;;;9.88;2.97;;;;;;;22.92;100.00;101181.81;10563685;28;20060;-73
2023/12/03 12:54:50;;;;;;;15.32;3.75;;;;;;;22.77;100.00;101193.94;10563329;27;20492;-73
2023/12/03 13:00:13;;;;;;;13.02;3.60;;;;;;;22.72;100.00;101192.25;10551161;27;20048;-74
2023/12/03 13:05:36;;;;;;;14.68;4.10;;;;;;;22.59;100.00;101199.75;10590760;27;20044;-74
2023/12/03 13:11:00;;;;;;;13.32;3.50;;;;;;;22.56;100.00;101216.91;10562052;28;20366;-73
2023/12/03 13:16:23;;;;;;;15.75;4.10;;;;;;;22.38;100.00;101200.34;10578657;27;20043;-74
2023/12/03 13:21:45;;;;;;;10.55;3.67;;;;;;;22.35;100.00;101203.09;10578250;27;20044;-74
2023/12/03 13:27:09;;;;;;;11.43;3.00;;;;;;;22.40;100.00;101209.25;10568092;27;20456;-74
2023/12/03 13:32:33;;;;;;;12.50;3.50;;;;;;;22.28;100.00;101205.06;10587946;27;20047;-74
2023/12/03 13:37:56;;;;;;;11.18;3.13;;;;;;;22.12;100.00;101196.50;10573721;27;20500;-74
2023/12/03 13:43:20;;;;;;;13.25;3.30;;;;;;;22.07;100.00;101195.72;10602168;27;20717;-73
2023/12/03 13:48:44;;;;;;;14.50;3.88;;;;;;;21.92;100.00;101201.47;10516554;28;20387;-74
2023/12/03 13:54:06;;;;;;;16.25;4.22;;;;;;;21.86;100.00;101210.53;10476630;28;20036;-74
2023/12/03 13:59:30;;;;;;;13.75;3.38;;;;;;;21.81;100.00;101195.44;10482945;28;20144;-74
2023/12/03 14:04:52;;;;;;;11.27;3.10;;;;;;;21.62;100.00;101202.16;10520782;28;20510;-74
2023/12/03 14:10:15;;;;;;;8.57;3.80;;;;;;;21.48;100.00;101200.69;10530048;28;20428;-74
2023/12/03 14:15:39;;;;;;;18.77;3.95;;;;;;;21.27;100.00;101206.50;10530368;28;20105;-74
2023/12/03 14:21:01;;;;;;;11.63;3.28;;;;;;;21.14;100.00;101198.72;10500308;28;20610;-74
2023/12/03 14:26:24;;;;;;;12.35;3.00;;;;;;;21.26;100.00;101199.41;10530381;28;20056;-74
2023/12/03 14:31:48;;;;;;;14.52;3.28;;;;;;;21.12;100.00;101201.44;10530986;28;20393;-74
2023/12/03 14:37:10;;;;;;;16.33;4.18;;;;;;;21.11;100.00;101205.03;10531884;28;20183;-74
2023/12/03 14:42:33;;;;;;;15.52;3.17;;;;;;;20.89;100.00;101222.47;10530267;28;20052;-74
2023/12/03 14:47:57;;;;;;;14.43;3.53;;;;;;;20.72;100.00;101216.56;10560898;28;20044;-74
2023/12/03 14:53:19;;;;;;;12.05;2.67;;;;;;;20.66;100.00;101213.09;10514913;28;20040;-74
2023/12/03 14:58:42;;;;;;;14.90;3.80;;;;;;;20.67;100.00;101209.50;10559696;28;20174;-73
2023/12/03 15:04:06;;;;;;;15.05;2.80;;;;;;;20.56;100.00;101215.94;10526525;28;20044;-73
2023/12/03 15:09:29;;;;;;;18.38;2.90;;;;;;;20.43;100.00;101222.44;10538393;28;20100;-73
2023/12/03 15:14:51;;;;;;;12.68;2.75;;;;;;;20.29;100.00;101222.66;10558345;28;20070;-73
2023/12/03 15:20:16;;;;;;;10.70;2.75;;;;;;;20.20;100.00;101210.31;10547155;28;20101;-73
2023/12/03 15:25:39;;;;;;;18.05;3.03;;;;;;;20.19;100.00;101231.78;10561823;28;20039;-73
2023/12/03 15:31:01;;;;;;;14.55;3.20;;;;;;;20.19;100.00;101235.34;10574709;28;20067;-73
2023/12/03 15:36:25;;;;;;;14.23;2.97;;;;;;;20.05;100.00;101237.34;10578193;28;20389;-73
2023/12/03 15:41:47;;;;;;;8.68;2.45;;;;;;;20.07;100.00;101242.69;10563132;28;20055;-72
2023/12/03 15:47:09;;;;;;;12.73;3.45;;;;;;;20.11;100.00;101244.41;10590702;27;20202;-73
2023/12/03 15:52:33;;;;;;;17.42;4.13;;;;;;;19.96;100.00;101241.94;10582228;27;20134;-73
2023/12/03 15:57:56;;;;;;;19.70;2.85;;;;;;;20.01;100.00;101242.78;10590547;27;20055;-73
2023/12/03 16:03:19;;;;;;;20.60;3.38;;;;;;;20.06;100.00;101241.81;10605419;27;20071;-73
2023/12/03 16:08:43;;;;;;;18.40;4.10;;;;;;;20.01;100.00;101264.25;10591345;27;20043;-73
2023/12/03 16:14:05;;;;;;;14.80;4.22;;;;;;;19.97;100.00;101257.13;10577042;27;20043;-74
2023/12/03 16:19:28;;;;;;;14.73;2.90;;;;;;;19.88;100.00;101264.41;10598414;27;20569;-73
2023/12/03 16:24:52;;;;;;;13.73;2.55;;;;;;;19.87;100.00;101270.69;10570834;27;20141;-73
2023/12/03 16:30:16;;;;;;;13.90;3.15;;;;;;;19.80;100.00;101265.44;10601284;27;20066;-73
2023/12/03 16:35:38;;;;;;;11.75;2.67;;;;;;;19.83;100.00;101262.69;10600293;27;20031;-73
2023/12/03 16:41:02;;;;;;;13.50;2.75;;;;;;;19.71;100.00;101260.19;10600101;27;20415;-72
2023/12/03 16:46:25;;;;;;;14.90;3.80;;;;;;;19.76;100.00;101280.66;10579586;27;20474;-73
2023/12/03 16:51:47;;;;;;;15.55;2.95;;;;;;;19.83;100.00;101274.28;10590578;27;20491;-73
2023/12/03 16:57:12;;;;;;;14.75;3.15;;;;;;;19.75;100.00;101281.59;10582032;27;20047;-73
2023/12/03 17:02:34;;;;;;;14.82;3.08;;;;;;;19.88;100.00;101275.16;10594183;27;20432;-72
2023/12/03 17:07:57;;;;;;;11.00;3.00;;;;;;;19.82;100.00;101283.25;10603068;27;20399;-73
2023/12/03 17:13:23;;;;;;;17.67;3.33;;;;;;;19.83;100.00;101281.44;10573209;27;20581;-74
2023/12/03 17:18:46;;;;;;;17.60;3.53;;;;;;;19.84;100.00;101281.44;10586087;27;21489;-73
2023/12/03 17:24:09;;;;;;;13.40;3.33;;;;;;;19.84;100.00;101277.88;10578551;27;20039;-73
2023/12/03 17:29:33;;;;;;;7.60;2.30;;;;;;;19.85;100.00;101288.56;10578473;27;20051;-74
2023/12/03 17:34:55;;;;;;;13.23;2.85;;;;;;;19.75;100.00;101278.00;10563017;27;20047;-73
2023/12/03 17:40:19;;;;;;;17.92;3.63;;;;;;;19.76;100.00;101279.75;10581854;27;20104;-73
2023/12/03 17:45:43;;;;;;;13.48;3.13;;;;;;;19.70;100.00;101278.06;10569423;28;20124;-74
2023/12/03 17:51:06;;;;;;;10.60;2.72;;;;;;;19.63;100.00;101287.06;10581809;27;20039;-74
2023/12/03 17:56:28;;;;;;;19.25;4.22;;;;;;;19.58;100.00;101277.34;10557996;27;20052;-74
2023/12/03 18:01:52;;;;;;;9.43;2.58;;;;;;;19.60;100.00;101273.75;10545841;27;20043;-73
2023/12/03 18:07:15;;;;;;;12.43;3.10;;;;;;;19.54;100.00;101289.00;10574927;27;20052;-73
2023/12/03 18:12:37;;;;;;;13.38;3.22;;;;;;;19.44;100.00;101275.69;10600883;27;20500;-73
2023/12/03 18:18:01;;;;;;;15.30;2.95;;;;;;;19.38;100.00;101275.75;10588859;27;20047;-73
2023/12/03 18:23:25;;;;;;;17.70;3.15;;;;;;;19.44;100.00;101277.47;10580568;27;20070;-73
2023/12/03 18:28:47;;;;;;;14.38;3.28;;;;;;;19.35;100.00;101269.56;10582513;27;20061;-73
2023/12/03 18:34:11;;;;;;;11.80;3.47;;;;;;;19.28;100.00;101271.44;10599626;27;20130;-74
2023/12/03 18:39:35;;;;;;;16.85;3.95;;;;;;;19.16;100.00;101276.94;10599287;27;20046;-73
2023/12/03 18:44:59;;;;;;;9.85;2.95;;;;;;;19.22;100.00;101275.97;10590469;27;20100;-73
2023/12/03 18:50:23;;;;;;;15.75;3.53;;;;;;;19.20;100.00;101278.66;10600612;27;20039;-72
2023/12/03 18:55:50;;;;;;;14.15;3.53;;;;;;;19.25;100.00;101279.50;10578938;27;20043;-73
2023/12/03 19:01:13;;;;;;;16.93;3.17;;;;;;;19.17;100.00;101284.03;10597915;27;20047;-72
2023/12/03 19:06:37;;;;;;;11.02;3.40;;;;;;;19.21;100.00;101279.56;10594481;28;20115;-72
2023/12/03 19:12:00;;;;;;;12.02;3.00;;;;;;;19.15;100.00;101290.34;10584369;28;20145;-73
2023/12/03 19:17:22;;;;;;;12.20;3.95;;;;;;;19.22;100.00;101271.50;10581509;28;20074;-72
2023/12/03 19:22:46;;;;;;;12.88;3.05;;;;;;;19.38;100.00;101270.41;10595049;28;20070;-73
2023/12/03 19:28:09;;;;;;;11.10;3.13;;;;;;;19.26;100.00;101281.28;10560380;28;20054;-73
2023/12/03 19:33:31;;;;;;;15.02;3.10;;;;;;;19.32;100.00;101270.47;10575135;28;20060;-74
2023/12/03 19:38:55;;;;;;;19.83;3.55;;;;;;;19.31;100.00;101278.53;10558209;28;20051;-73
2023/12/03 19:44:17;;;;;;;14.30;3.20;;;;;;;19.20;100.00;101276.00;10578263;28;20551;-73
2023/12/03 19:49:40;;;;;;;11.85;3.15;;;;;;;19.16;100.00;101278.72;10568371;28;20538;-74
2023/12/03 19:55:05;;;;;;;15.23;3.75;;;;;;;19.16;100.00;101276.06;10592707;28;20123;-74
2023/12/03 20:00:27;;;;;;;8.13;3.08;;;;;;;19.17;100.00;101277.78;10598074;27;20047;-74
2023/12/03 20:05:50;;;;;;;10.25;3.88;;;;;;;19.15;100.00;101263.56;10578041;27;20100;-73
2023/12/03 20:11:14;;;;;;;17.33;3.42;;;;;;;18.92;100.00;101278.06;10585271;27;20130;-73
2023/12/03 20:16:36;;;;;;;12.13;2.83;;;;;;;18.96;100.00;101279.84;10606805;27;20112;-73
2023/12/03 20:21:58;;;;;;;14.70;3.00;;;;;;;18.93;100.00;101278.97;10600734;27;20063;-73
2023/12/03 20:27:22;;;;;;;11.38;2.88;;;;;;;18.90;100.00;101287.03;10574384;27;20482;-73
2023/12/03 20:32:46;;;;;;;13.38;3.00;;;;;;;18.85;100.00;101280.81;10571744;27;20040;-73
2023/12/03 20:38:09;;;;;;;8.73;3.40;;;;;;;18.83;100.00;101288.00;10570692;27;20054;-73
2023/12/03 20:43:36;;;;;;;10.73;2.72;;;;;;;18.64;100.00;101281.94;10594646;27;20058;-73
2023/12/03 20:49:00;;;;;;;9.13;3.13;;;;;;;18.61;100.00;101287.31;10534172;28;20530;-73
2023/12/03 20:54:22;;;;;;;7.93;2.92;;;;;;;18.58;100.00;101277.50;10535156;28;20052;-73
2023/12/03 20:59:46;;;;;;;13.27;2.80;;;;;;;18.64;100.00;101274.78;10535216;28;20117;-73
2023/12/03 21:05:09;;;;;;;12.30;2.58;;;;;;;18.57;100.00;101258.81;10534566;28;20048;-73
2023/12/03 21:10:31;;;;;;;13.75;2.95;;;;;;;18.41;100.00;101265.16;10534340;28;20117;-73
2023/12/03 21:15:55;;;;;;;15.25;3.92;;;;;;;18.47;100.00;101255.31;10519979;28;20055;-73
2023/12/03 21:21:18;;;;;;;16.80;3.58;;;;;;;18.45;100.00;101258.88;10534211;28;20547;-73
2023/12/03 21:26:40;;;;;;;14.55;2.80;;;;;;;18.45;100.00;101262.44;10532225;28;20078;-74
2023/12/03 21:32:05;;;;;;;12.00;2.97;;;;;;;18.38;100.00;101262.53;10532726;28;20113;-74
2023/12/03 21:37:27;;;;;;;9.93;3.17;;;;;;;18.31;100.00;101269.72;10533319;28;20050;-74
2023/12/03 21:42:50;;;;;;;10.65;4.10;;;;;;;18.19;100.00;101280.47;10532702;28;20048;-73
2023/12/03 21:48:14;;;;;;;17.77;3.80;;;;;;;18.16;100.00;101275.16;10550004;28;20439;-73
2023/12/03 21:53:36;;;;;;;12.82;3.13;;;;;;;18.15;100.00;101260.03;10541980;28;20051;-73
2023/12/03 21:59:01;;;;;;;15.88;3.65;;;;;;;18.03;100.00;101254.78;10544242;28;20120;-73
2023/12/03 22:04:27;;;;;;;13.70;3.08;;;;;;;18.17;100.00;101268.94;10558479;28;20096;-73
2023/12/03 22:09:49;;;;;;;15.38;3.85;;;;;;;18.20;100.00;101268.88;10532519;28;20054;-73
2023/12/03 22:15:12;;;;;;;9.00;3.00;;;;;;;18.12;100.00;101273.38;10563555;28;20160;-73
2023/12/03 22:20:36;;;;;;;16.63;3.33;;;;;;;18.01;100.00;101272.59;10571021;28;20059;-73
2023/12/03 22:25:58;;;;;;;8.20;2.67;;;;;;;17.99;100.00;101283.28;10550347;28;20044;-74
2023/12/03 22:31:21;;;;;;;13.55;3.08;;;;;;;17.83;100.00;101276.28;10522511;28;20556;-73
2023/12/03 22:36:44;;;;;;;8.70;2.45;;;;;;;17.86;100.00;101277.13;10563496;28;20105;-73
2023/12/03 22:42:07;;;;;;;13.27;3.00;;;;;;;17.96;100.00;101267.28;10568812;28;20036;-74
2023/12/03 22:47:31;;;;;;;11.50;2.65;;;;;;;17.89;100.00;101265.53;10534337;28;20119;-73
2023/12/03 22:52:55;;;;;;;11.32;3.35;;;;;;;18.01;100.00;101254.78;10529155;28;20089;-72
2023/12/03 22:58:17;;;;;;;11.00;3.83;;;;;;;17.94;100.00;101261.06;10529473;28;20489;-73
2023/12/03 23:03:40;;;;;;;8.77;2.88;;;;;;;17.82;100.00;101256.69;10526121;28;20105;-74
2023/12/03 23:09:06;;;;;;;14.43;2.83;;;;;;;17.78;100.00;101254.06;10526400;28;20517;-73
2023/12/03 23:14:30;;;;;;;8.77;2.25;;;;;;;17.77;100.00;101249.59;10528937;28;20106;-73
2023/12/03 23:19:52;;;;;;;9.50;3.08;;;;;;;17.71;100.00;101257.66;10514571;28;20253;-73
2023/12/03 23:25:16;;;;;;;12.43;3.33;;;;;;;17.77;100.00;101257.63;10526748;28;20044;-73
2023/12/03 23:30:38;;;;;;;16.58;3.50;;;;;;;17.75;100.00;101264.75;10527694;28;20056;-72
2023/12/03 23:36:01;;;;;;;10.35;3.03;;;;;;;17.79;100.00;101255.81;10526937;28;20456;-72
2023/12/03 23:41:25;;;;;;;10.30;3.33;;;;;;;17.75;100.00;101248.72;10527766;28;20075;-73
2023/12/03 23:46:47;;;;;;;13.45;2.45;;;;;;;17.74;100.00;101247.81;10563213;27;20059;-73
2023/12/03 23:52:10;;;;;;;9.50;2.10;;;;;;;17.78;100.00;101246.03;10593464;27;20043;-73
2023/12/03 23:57:35;;;;;;;17.35;3.05;;;;;;;17.76;100.00;101248.72;10578297;27;20050;-73
